sensor_id;sensor_type;location;lat;lon;timestamp;P1;durP1;ratioP1;P2;durP2;ratioP2
28848;SDS011;15981;43.292;-2.888;2022-12-10T00:01:32;2.90;;;2.38;;
28848;SDS011;15981;43.292;-2.888;2022-12-10T00:03:58;3.22;;;2.38;;
28848;SDS011;15981;43.292;-2.888;2022-12-10T00:06:26;4.50;;;2.30;;
28848;SDS011;15981;43.292;-2.888;2022-12-10T00:08:52;3.58;;;2.22;;
28848;SDS011;15981;43.292;-2.888;2022-12-10T00:11:19;3.10;;;2.70;;
28848;SDS011;15981;43.292;-2.888;2022-12-10T00:13:45;5.25;;;2.30;;
28848;SDS011;15981;43.292;-2.888;2022-12-10T00:16:12;4.25;;;2.15;;
28848;SDS011;15981;43.292;-2.888;2022-12-10T00:18:38;3.13;;;2.50;;
28848;SDS011;15981;43.292;-2.888;2022-12-10T00:21:04;3.92;;;2.50;;
28848;SDS011;15981;43.292;-2.888;2022-12-10T00:23:31;3.40;;;2.47;;
28848;SDS011;15981;43.292;-2.888;2022-12-10T00:26:04;3.55;;;2.55;;
28848;SDS011;15981;43.292;-2.888;2022-12-10T00:28:31;3.05;;;2.35;;
28848;SDS011;15981;43.292;-2.888;2022-12-10T00:31:02;3.97;;;2.30;;
28848;SDS011;15981;43.292;-2.888;2022-12-10T00:33:27;5.00;;;2.85;;
28848;SDS011;15981;43.292;-2.888;2022-12-10T00:35:53;3.05;;;2.75;;
28848;SDS011;15981;43.292;-2.888;2022-12-10T00:38:19;3.75;;;2.78;;
28848;SDS011;15981;43.292;-2.888;2022-12-10T00:40:45;4.47;;;2.90;;
28848;SDS011;15981;43.292;-2.888;2022-12-10T00:43:11;3.65;;;2.50;;
28848;SDS011;15981;43.292;-2.888;2022-12-10T00:45:36;4.75;;;2.83;;
28848;SDS011;15981;43.292;-2.888;2022-12-10T00:48:02;3.28;;;2.70;;
28848;SDS011;15981;43.292;-2.888;2022-12-10T00:50:28;5.90;;;2.80;;
28848;SDS011;15981;43.292;-2.888;2022-12-10T00:52:54;4.50;;;2.92;;
28848;SDS011;15981;43.292;-2.888;2022-12-10T00:55:19;4.97;;;2.70;;
28848;SDS011;15981;43.292;-2.888;2022-12-10T00:57:45;4.90;;;2.83;;
28848;SDS011;15981;43.292;-2.888;2022-12-10T01:00:11;5.45;;;2.85;;
28848;SDS011;15981;43.292;-2.888;2022-12-10T01:02:38;5.70;;;3.40;;
28848;SDS011;15981;43.292;-2.888;2022-12-10T01:05:04;6.00;;;3.05;;
28848;SDS011;15981;43.292;-2.888;2022-12-10T01:07:30;4.60;;;3.05;;
28848;SDS011;15981;43.292;-2.888;2022-12-10T01:09:55;4.15;;;3.10;;
28848;SDS011;15981;43.292;-2.888;2022-12-10T01:12:21;6.00;;;2.97;;
28848;SDS011;15981;43.292;-2.888;2022-12-10T01:14:47;5.38;;;2.97;;
28848;SDS011;15981;43.292;-2.888;2022-12-10T01:17:13;4.75;;;2.83;;
28848;SDS011;15981;43.292;-2.888;2022-12-10T01:19:38;4.43;;;2.70;;
28848;SDS011;15981;43.292;-2.888;2022-12-10T01:22:04;3.90;;;2.97;;
28848;SDS011;15981;43.292;-2.888;2022-12-10T01:24:30;4.75;;;2.65;;
28848;SDS011;15981;43.292;-2.888;2022-12-10T01:26:56;4.97;;;3.00;;
28848;SDS011;15981;43.292;-2.888;2022-12-10T01:29:22;4.65;;;2.70;;
28848;SDS011;15981;43.292;-2.888;2022-12-10T01:31:50;4.40;;;2.95;;
28848;SDS011;15981;43.292;-2.888;2022-12-10T01:34:16;4.50;;;2.78;;
28848;SDS011;15981;43.292;-2.888;2022-12-10T01:36:42;4.40;;;2.85;;
28848;SDS011;15981;43.292;-2.888;2022-12-10T01:39:09;4.35;;;3.00;;
28848;SDS011;15981;43.292;-2.888;2022-12-10T01:41:46;5.35;;;3.00;;
28848;SDS011;15981;43.292;-2.888;2022-12-10T01:46:39;5.38;;;2.83;;
28848;SDS011;15981;43.292;-2.888;2022-12-10T01:49:06;5.05;;;2.70;;
28848;SDS011;15981;43.292;-2.888;2022-12-10T01:51:33;4.63;;;2.63;;
28848;SDS011;15981;43.292;-2.888;2022-12-10T01:54:00;4.35;;;2.72;;
28848;SDS011;15981;43.292;-2.888;2022-12-10T01:56:26;4.80;;;2.80;;
28848;SDS011;15981;43.292;-2.888;2022-12-10T01:58:53;4.35;;;2.80;;
28848;SDS011;15981;43.292;-2.888;2022-12-10T02:04:03;4.72;;;2.55;;
28848;SDS011;15981;43.292;-2.888;2022-12-10T02:06:32;5.00;;;2.60;;
28848;SDS011;15981;43.292;-2.888;2022-12-10T02:11:44;3.75;;;2.90;;
28848;SDS011;15981;43.292;-2.888;2022-12-10T02:14:19;3.95;;;2.70;;
28848;SDS011;15981;43.292;-2.888;2022-12-10T02:16:55;5.53;;;3.00;;
28848;SDS011;15981;43.292;-2.888;2022-12-10T02:22:06;5.00;;;2.80;;
28848;SDS011;15981;43.292;-2.888;2022-12-10T02:24:34;4.10;;;2.80;;
28848;SDS011;15981;43.292;-2.888;2022-12-10T02:27:03;4.80;;;2.78;;
28848;SDS011;15981;43.292;-2.888;2022-12-10T02:29:30;3.60;;;2.50;;
28848;SDS011;15981;43.292;-2.888;2022-12-10T02:32:03;4.15;;;2.60;;
28848;SDS011;15981;43.292;-2.888;2022-12-10T02:34:30;6.10;;;3.05;;
28848;SDS011;15981;43.292;-2.888;2022-12-10T02:37:01;4.88;;;2.47;;
28848;SDS011;15981;43.292;-2.888;2022-12-10T02:39:30;4.03;;;2.72;;
28848;SDS011;15981;43.292;-2.888;2022-12-10T02:41:57;2.95;;;2.20;;
28848;SDS011;15981;43.292;-2.888;2022-12-10T02:44:25;4.15;;;2.45;;
28848;SDS011;15981;43.292;-2.888;2022-12-10T02:46:54;2.83;;;2.30;;
28848;SDS011;15981;43.292;-2.888;2022-12-10T02:49:20;3.30;;;2.50;;
28848;SDS011;15981;43.292;-2.888;2022-12-10T02:51:46;3.08;;;2.35;;
28848;SDS011;15981;43.292;-2.888;2022-12-10T02:56:58;2.63;;;2.20;;
28848;SDS011;15981;43.292;-2.888;2022-12-10T02:59:29;4.30;;;2.38;;
28848;SDS011;15981;43.292;-2.888;2022-12-10T03:02:10;3.40;;;2.58;;
28848;SDS011;15981;43.292;-2.888;2022-12-10T03:04:39;3.42;;;2.17;;
28848;SDS011;15981;43.292;-2.888;2022-12-10T03:07:10;3.28;;;2.40;;
28848;SDS011;15981;43.292;-2.888;2022-12-10T03:09:39;3.55;;;2.35;;
28848;SDS011;15981;43.292;-2.888;2022-12-10T03:12:07;4.05;;;2.15;;
28848;SDS011;15981;43.292;-2.888;2022-12-10T03:14:34;2.67;;;2.00;;
28848;SDS011;15981;43.292;-2.888;2022-12-10T03:17:00;3.00;;;2.20;;
28848;SDS011;15981;43.292;-2.888;2022-12-10T03:19:36;3.15;;;2.03;;
28848;SDS011;15981;43.292;-2.888;2022-12-10T03:22:03;2.60;;;2.13;;
28848;SDS011;15981;43.292;-2.888;2022-12-10T03:24:29;2.83;;;2.53;;
28848;SDS011;15981;43.292;-2.888;2022-12-10T03:26:56;2.90;;;2.20;;
28848;SDS011;15981;43.292;-2.888;2022-12-10T03:29:24;3.80;;;2.00;;
28848;SDS011;15981;43.292;-2.888;2022-12-10T03:31:52;2.63;;;1.92;;
28848;SDS011;15981;43.292;-2.888;2022-12-10T03:34:18;2.92;;;2.05;;
28848;SDS011;15981;43.292;-2.888;2022-12-10T03:36:44;3.10;;;2.35;;
28848;SDS011;15981;43.292;-2.888;2022-12-10T03:39:11;2.80;;;2.10;;
28848;SDS011;15981;43.292;-2.888;2022-12-10T03:41:37;2.72;;;1.90;;
28848;SDS011;15981;43.292;-2.888;2022-12-10T03:44:03;3.72;;;2.10;;
28848;SDS011;15981;43.292;-2.888;2022-12-10T03:46:29;2.83;;;1.80;;
28848;SDS011;15981;43.292;-2.888;2022-12-10T03:48:55;3.60;;;2.20;;
28848;SDS011;15981;43.292;-2.888;2022-12-10T03:51:21;3.20;;;1.80;;
28848;SDS011;15981;43.292;-2.888;2022-12-10T03:53:47;3.05;;;1.90;;
28848;SDS011;15981;43.292;-2.888;2022-12-10T03:56:16;2.60;;;2.10;;
28848;SDS011;15981;43.292;-2.888;2022-12-10T03:58:43;2.70;;;2.10;;
28848;SDS011;15981;43.292;-2.888;2022-12-10T04:01:08;2.38;;;1.90;;
28848;SDS011;15981;43.292;-2.888;2022-12-10T04:03:35;2.42;;;2.20;;
28848;SDS011;15981;43.292;-2.888;2022-12-10T04:06:02;2.67;;;1.90;;
28848;SDS011;15981;43.292;-2.888;2022-12-10T04:08:29;3.78;;;1.98;;
28848;SDS011;15981;43.292;-2.888;2022-12-10T04:10:54;2.80;;;1.90;;
28848;SDS011;15981;43.292;-2.888;2022-12-10T04:13:20;3.25;;;1.60;;
28848;SDS011;15981;43.292;-2.888;2022-12-10T04:16:04;2.97;;;1.80;;
28848;SDS011;15981;43.292;-2.888;2022-12-10T04:18:48;2.72;;;1.85;;
28848;SDS011;15981;43.292;-2.888;2022-12-10T04:21:14;2.40;;;1.85;;
28848;SDS011;15981;43.292;-2.888;2022-12-10T04:23:59;2.33;;;1.88;;
28848;SDS011;15981;43.292;-2.888;2022-12-10T04:26:43;2.80;;;1.80;;
28848;SDS011;15981;43.292;-2.888;2022-12-10T04:29:18;2.83;;;1.70;;
28848;SDS011;15981;43.292;-2.888;2022-12-10T04:31:44;2.97;;;2.10;;
28848;SDS011;15981;43.292;-2.888;2022-12-10T04:34:10;2.65;;;1.65;;
28848;SDS011;15981;43.292;-2.888;2022-12-10T04:36:36;2.00;;;1.70;;
28848;SDS011;15981;43.292;-2.888;2022-12-10T04:39:02;2.40;;;2.00;;
28848;SDS011;15981;43.292;-2.888;2022-12-10T04:41:28;2.78;;;1.60;;
28848;SDS011;15981;43.292;-2.888;2022-12-10T04:43:54;3.25;;;2.00;;
28848;SDS011;15981;43.292;-2.888;2022-12-10T04:46:19;2.90;;;2.00;;
28848;SDS011;15981;43.292;-2.888;2022-12-10T04:48:45;3.30;;;1.50;;
28848;SDS011;15981;43.292;-2.888;2022-12-10T04:51:11;2.22;;;1.63;;
28848;SDS011;15981;43.292;-2.888;2022-12-10T04:53:37;2.20;;;1.73;;
28848;SDS011;15981;43.292;-2.888;2022-12-10T04:56:02;2.45;;;1.80;;
28848;SDS011;15981;43.292;-2.888;2022-12-10T04:58:30;1.83;;;1.48;;
28848;SDS011;15981;43.292;-2.888;2022-12-10T05:01:06;2.20;;;1.80;;
28848;SDS011;15981;43.292;-2.888;2022-12-10T05:03:32;2.65;;;1.80;;
28848;SDS011;15981;43.292;-2.888;2022-12-10T05:06:02;2.05;;;1.70;;
28848;SDS011;15981;43.292;-2.888;2022-12-10T05:08:27;1.90;;;1.70;;
28848;SDS011;15981;43.292;-2.888;2022-12-10T05:10:55;2.65;;;1.67;;
28848;SDS011;15981;43.292;-2.888;2022-12-10T05:13:21;2.53;;;1.83;;
28848;SDS011;15981;43.292;-2.888;2022-12-10T05:15:46;2.35;;;1.52;;
28848;SDS011;15981;43.292;-2.888;2022-12-10T05:18:12;3.08;;;2.00;;
28848;SDS011;15981;43.292;-2.888;2022-12-10T05:20:38;2.10;;;1.55;;
28848;SDS011;15981;43.292;-2.888;2022-12-10T05:23:03;2.53;;;1.90;;
28848;SDS011;15981;43.292;-2.888;2022-12-10T05:25:48;3.10;;;1.70;;
28848;SDS011;15981;43.292;-2.888;2022-12-10T05:28:22;1.80;;;1.70;;
28848;SDS011;15981;43.292;-2.888;2022-12-10T05:30:48;1.77;;;1.40;;
28848;SDS011;15981;43.292;-2.888;2022-12-10T05:33:14;1.90;;;1.48;;
28848;SDS011;15981;43.292;-2.888;2022-12-10T05:35:40;2.05;;;1.70;;
28848;SDS011;15981;43.292;-2.888;2022-12-10T05:38:05;2.83;;;1.77;;
28848;SDS011;15981;43.292;-2.888;2022-12-10T05:40:35;3.00;;;1.70;;
28848;SDS011;15981;43.292;-2.888;2022-12-10T05:43:01;1.83;;;1.63;;
28848;SDS011;15981;43.292;-2.888;2022-12-10T05:45:27;2.47;;;1.73;;
28848;SDS011;15981;43.292;-2.888;2022-12-10T05:47:52;2.55;;;1.70;;
28848;SDS011;15981;43.292;-2.888;2022-12-10T05:50:18;2.40;;;1.65;;
28848;SDS011;15981;43.292;-2.888;2022-12-10T05:52:44;2.63;;;1.45;;
28848;SDS011;15981;43.292;-2.888;2022-12-10T05:55:09;2.03;;;1.70;;
28848;SDS011;15981;43.292;-2.888;2022-12-10T05:57:36;2.15;;;1.67;;
28848;SDS011;15981;43.292;-2.888;2022-12-10T06:00:03;2.25;;;1.52;;
28848;SDS011;15981;43.292;-2.888;2022-12-10T06:02:31;2.53;;;1.70;;
28848;SDS011;15981;43.292;-2.888;2022-12-10T06:04:57;2.08;;;1.77;;
28848;SDS011;15981;43.292;-2.888;2022-12-10T06:07:23;2.10;;;1.88;;
28848;SDS011;15981;43.292;-2.888;2022-12-10T06:09:49;4.15;;;2.35;;
28848;SDS011;15981;43.292;-2.888;2022-12-10T06:12:14;3.03;;;2.00;;
28848;SDS011;15981;43.292;-2.888;2022-12-10T06:14:40;2.20;;;1.95;;
28848;SDS011;15981;43.292;-2.888;2022-12-10T06:17:06;2.33;;;1.80;;
28848;SDS011;15981;43.292;-2.888;2022-12-10T06:19:32;3.20;;;1.88;;
28848;SDS011;15981;43.292;-2.888;2022-12-10T06:21:57;2.80;;;1.98;;
28848;SDS011;15981;43.292;-2.888;2022-12-10T06:24:24;2.35;;;1.70;;
28848;SDS011;15981;43.292;-2.888;2022-12-10T06:26:49;2.00;;;1.80;;
28848;SDS011;15981;43.292;-2.888;2022-12-10T06:29:16;2.20;;;1.67;;
28848;SDS011;15981;43.292;-2.888;2022-12-10T06:31:42;2.33;;;1.90;;
28848;SDS011;15981;43.292;-2.888;2022-12-10T06:34:08;2.13;;;1.90;;
28848;SDS011;15981;43.292;-2.888;2022-12-10T06:36:33;3.10;;;2.10;;
28848;SDS011;15981;43.292;-2.888;2022-12-10T06:38:59;3.00;;;1.85;;
28848;SDS011;15981;43.292;-2.888;2022-12-10T06:41:25;2.30;;;1.77;;
28848;SDS011;15981;43.292;-2.888;2022-12-10T06:43:50;1.85;;;1.55;;
28848;SDS011;15981;43.292;-2.888;2022-12-10T06:46:17;1.95;;;1.75;;
28848;SDS011;15981;43.292;-2.888;2022-12-10T06:48:43;2.45;;;1.70;;
28848;SDS011;15981;43.292;-2.888;2022-12-10T06:51:10;2.50;;;1.90;;
28848;SDS011;15981;43.292;-2.888;2022-12-10T06:53:37;2.97;;;1.90;;
28848;SDS011;15981;43.292;-2.888;2022-12-10T06:56:03;2.78;;;1.65;;
28848;SDS011;15981;43.292;-2.888;2022-12-10T06:58:30;2.13;;;1.70;;
28848;SDS011;15981;43.292;-2.888;2022-12-10T07:01:06;1.73;;;1.42;;
28848;SDS011;15981;43.292;-2.888;2022-12-10T07:03:31;4.43;;;2.08;;
28848;SDS011;15981;43.292;-2.888;2022-12-10T07:05:58;2.10;;;1.80;;
28848;SDS011;15981;43.292;-2.888;2022-12-10T07:08:24;2.63;;;1.70;;
28848;SDS011;15981;43.292;-2.888;2022-12-10T07:10:49;11.77;;;3.20;;
28848;SDS011;15981;43.292;-2.888;2022-12-10T07:13:15;3.05;;;2.15;;
28848;SDS011;15981;43.292;-2.888;2022-12-10T07:15:41;2.30;;;1.70;;
28848;SDS011;15981;43.292;-2.888;2022-12-10T07:18:07;3.33;;;2.00;;
28848;SDS011;15981;43.292;-2.888;2022-12-10T07:20:32;3.35;;;1.90;;
28848;SDS011;15981;43.292;-2.888;2022-12-10T07:22:58;2.92;;;1.90;;
28848;SDS011;15981;43.292;-2.888;2022-12-10T07:25:24;2.20;;;1.70;;
28848;SDS011;15981;43.292;-2.888;2022-12-10T07:27:49;3.00;;;1.70;;
28848;SDS011;15981;43.292;-2.888;2022-12-10T07:30:15;3.05;;;1.70;;
28848;SDS011;15981;43.292;-2.888;2022-12-10T07:32:41;5.18;;;1.92;;
28848;SDS011;15981;43.292;-2.888;2022-12-10T07:35:07;3.97;;;1.83;;
28848;SDS011;15981;43.292;-2.888;2022-12-10T07:37:33;4.45;;;1.98;;
28848;SDS011;15981;43.292;-2.888;2022-12-10T07:39:58;3.17;;;1.70;;
28848;SDS011;15981;43.292;-2.888;2022-12-10T07:42:24;2.80;;;1.75;;
28848;SDS011;15981;43.292;-2.888;2022-12-10T07:44:50;3.58;;;2.03;;
28848;SDS011;15981;43.292;-2.888;2022-12-10T07:47:16;2.88;;;1.90;;
28848;SDS011;15981;43.292;-2.888;2022-12-10T07:49:41;4.13;;;2.15;;
28848;SDS011;15981;43.292;-2.888;2022-12-10T07:52:08;4.18;;;2.00;;
28848;SDS011;15981;43.292;-2.888;2022-12-10T07:54:33;3.22;;;2.00;;
28848;SDS011;15981;43.292;-2.888;2022-12-10T07:56:59;3.05;;;2.10;;
28848;SDS011;15981;43.292;-2.888;2022-12-10T07:59:25;3.15;;;2.13;;
28848;SDS011;15981;43.292;-2.888;2022-12-10T08:01:51;2.83;;;2.10;;
28848;SDS011;15981;43.292;-2.888;2022-12-10T08:04:17;2.88;;;1.98;;
28848;SDS011;15981;43.292;-2.888;2022-12-10T08:06:43;2.08;;;1.80;;
28848;SDS011;15981;43.292;-2.888;2022-12-10T08:09:09;3.42;;;2.10;;
28848;SDS011;15981;43.292;-2.888;2022-12-10T08:11:35;3.17;;;2.33;;
28848;SDS011;15981;43.292;-2.888;2022-12-10T08:14:01;2.35;;;2.10;;
28848;SDS011;15981;43.292;-2.888;2022-12-10T08:16:27;2.30;;;1.95;;
28848;SDS011;15981;43.292;-2.888;2022-12-10T08:18:54;2.67;;;2.28;;
28848;SDS011;15981;43.292;-2.888;2022-12-10T08:21:21;3.05;;;1.95;;
28848;SDS011;15981;43.292;-2.888;2022-12-10T08:23:48;3.13;;;2.50;;
28848;SDS011;15981;43.292;-2.888;2022-12-10T08:26:17;3.35;;;2.20;;
28848;SDS011;15981;43.292;-2.888;2022-12-10T08:28:44;3.67;;;2.42;;
28848;SDS011;15981;43.292;-2.888;2022-12-10T08:31:10;4.95;;;2.17;;
28848;SDS011;15981;43.292;-2.888;2022-12-10T08:33:37;2.88;;;2.03;;
28848;SDS011;15981;43.292;-2.888;2022-12-10T08:36:05;4.00;;;2.13;;
28848;SDS011;15981;43.292;-2.888;2022-12-10T08:38:31;2.63;;;2.38;;
28848;SDS011;15981;43.292;-2.888;2022-12-10T08:40:57;3.75;;;2.28;;
28848;SDS011;15981;43.292;-2.888;2022-12-10T08:43:23;3.38;;;2.00;;
28848;SDS011;15981;43.292;-2.888;2022-12-10T08:45:48;4.25;;;2.20;;
28848;SDS011;15981;43.292;-2.888;2022-12-10T08:48:14;2.40;;;1.92;;
28848;SDS011;15981;43.292;-2.888;2022-12-10T08:50:40;4.10;;;2.30;;
28848;SDS011;15981;43.292;-2.888;2022-12-10T08:53:06;2.75;;;2.10;;
28848;SDS011;15981;43.292;-2.888;2022-12-10T08:55:31;2.75;;;2.42;;
28848;SDS011;15981;43.292;-2.888;2022-12-10T08:57:57;3.13;;;2.22;;
28848;SDS011;15981;43.292;-2.888;2022-12-10T09:00:24;3.95;;;2.33;;
28848;SDS011;15981;43.292;-2.888;2022-12-10T09:02:49;2.28;;;2.00;;
28848;SDS011;15981;43.292;-2.888;2022-12-10T09:05:15;3.35;;;2.40;;
28848;SDS011;15981;43.292;-2.888;2022-12-10T09:07:41;2.83;;;2.33;;
28848;SDS011;15981;43.292;-2.888;2022-12-10T09:10:08;2.40;;;2.13;;
28848;SDS011;15981;43.292;-2.888;2022-12-10T09:12:34;4.45;;;2.50;;
28848;SDS011;15981;43.292;-2.888;2022-12-10T09:15:00;4.47;;;2.22;;
28848;SDS011;15981;43.292;-2.888;2022-12-10T09:17:26;2.90;;;2.30;;
28848;SDS011;15981;43.292;-2.888;2022-12-10T09:19:52;2.95;;;2.50;;
28848;SDS011;15981;43.292;-2.888;2022-12-10T09:22:17;2.90;;;2.50;;
28848;SDS011;15981;43.292;-2.888;2022-12-10T09:24:43;3.78;;;2.50;;
28848;SDS011;15981;43.292;-2.888;2022-12-10T09:27:09;4.38;;;2.85;;
28848;SDS011;15981;43.292;-2.888;2022-12-10T09:29:35;7.88;;;3.72;;
28848;SDS011;15981;43.292;-2.888;2022-12-10T09:32:00;6.25;;;4.40;;
28848;SDS011;15981;43.292;-2.888;2022-12-10T09:34:26;6.93;;;5.07;;
28848;SDS011;15981;43.292;-2.888;2022-12-10T09:36:52;6.85;;;4.38;;
28848;SDS011;15981;43.292;-2.888;2022-12-10T09:39:17;8.75;;;5.18;;
28848;SDS011;15981;43.292;-2.888;2022-12-10T09:46:51;10.00;;;6.30;;
28848;SDS011;15981;43.292;-2.888;2022-12-10T09:51:43;20.27;;;14.57;;
28848;SDS011;15981;43.292;-2.888;2022-12-10T09:56:43;15.77;;;12.30;;
28848;SDS011;15981;43.292;-2.888;2022-12-10T09:59:53;15.00;;;11.43;;
28848;SDS011;15981;43.292;-2.888;2022-12-10T10:02:09;14.02;;;10.98;;
28848;SDS011;15981;43.292;-2.888;2022-12-10T10:04:36;16.05;;;11.43;;
28848;SDS011;15981;43.292;-2.888;2022-12-10T10:07:02;18.25;;;11.30;;
28848;SDS011;15981;43.292;-2.888;2022-12-10T10:09:39;15.55;;;10.98;;
28848;SDS011;15981;43.292;-2.888;2022-12-10T10:12:12;13.82;;;10.35;;
28848;SDS011;15981;43.292;-2.888;2022-12-10T10:14:38;13.70;;;9.50;;
28848;SDS011;15981;43.292;-2.888;2022-12-10T10:17:08;13.43;;;9.25;;
28848;SDS011;15981;43.292;-2.888;2022-12-10T10:19:35;13.10;;;9.02;;
28848;SDS011;15981;43.292;-2.888;2022-12-10T10:22:04;12.85;;;8.85;;
28848;SDS011;15981;43.292;-2.888;2022-12-10T10:24:34;12.35;;;8.65;;
28848;SDS011;15981;43.292;-2.888;2022-12-10T10:29:45;9.68;;;7.65;;
28848;SDS011;15981;43.292;-2.888;2022-12-10T10:32:13;13.48;;;7.15;;
28848;SDS011;15981;43.292;-2.888;2022-12-10T10:34:39;15.05;;;7.88;;
28848;SDS011;15981;43.292;-2.888;2022-12-10T10:37:05;17.52;;;9.25;;
28848;SDS011;15981;43.292;-2.888;2022-12-10T10:39:32;17.42;;;8.75;;
28848;SDS011;15981;43.292;-2.888;2022-12-10T10:42:08;15.55;;;7.85;;
28848;SDS011;15981;43.292;-2.888;2022-12-10T10:44:35;14.32;;;8.20;;
28848;SDS011;15981;43.292;-2.888;2022-12-10T10:47:02;25.10;;;16.50;;
28848;SDS011;15981;43.292;-2.888;2022-12-10T10:49:29;70.05;;;47.40;;
28848;SDS011;15981;43.292;-2.888;2022-12-10T10:51:59;87.25;;;64.10;;
28848;SDS011;15981;43.292;-2.888;2022-12-10T10:54:43;91.93;;;64.45;;
28848;SDS011;15981;43.292;-2.888;2022-12-10T10:59:38;76.35;;;49.90;;
28848;SDS011;15981;43.292;-2.888;2022-12-10T11:02:16;72.97;;;47.35;;
28848;SDS011;15981;43.292;-2.888;2022-12-10T11:07:19;63.95;;;44.10;;
28848;SDS011;15981;43.292;-2.888;2022-12-10T11:09:46;61.95;;;43.20;;
28848;SDS011;15981;43.292;-2.888;2022-12-10T11:12:34;57.85;;;40.45;;
28848;SDS011;15981;43.292;-2.888;2022-12-10T11:14:58;62.55;;;40.25;;
28848;SDS011;15981;43.292;-2.888;2022-12-10T11:17:24;60.70;;;38.17;;
28848;SDS011;15981;43.292;-2.888;2022-12-10T11:20:00;52.22;;;37.00;;
28848;SDS011;15981;43.292;-2.888;2022-12-10T11:22:29;57.70;;;36.53;;
28848;SDS011;15981;43.292;-2.888;2022-12-10T11:24:55;61.45;;;40.30;;
28848;SDS011;15981;43.292;-2.888;2022-12-10T11:27:39;65.47;;;42.92;;
28848;SDS011;15981;43.292;-2.888;2022-12-10T11:30:26;67.43;;;44.55;;
28848;SDS011;15981;43.292;-2.888;2022-12-10T11:33:30;59.67;;;39.75;;
28848;SDS011;15981;43.292;-2.888;2022-12-10T11:48:20;50.03;;;33.33;;
28848;SDS011;15981;43.292;-2.888;2022-12-10T11:50:53;53.38;;;33.25;;
28848;SDS011;15981;43.292;-2.888;2022-12-10T11:55:59;43.85;;;31.15;;
28848;SDS011;15981;43.292;-2.888;2022-12-10T12:00:59;45.83;;;29.70;;
28848;SDS011;15981;43.292;-2.888;2022-12-10T12:09:16;44.60;;;27.00;;
28848;SDS011;15981;43.292;-2.888;2022-12-10T12:16:46;38.67;;;24.20;;
28848;SDS011;15981;43.292;-2.888;2022-12-10T12:19:14;33.10;;;24.38;;
28848;SDS011;15981;43.292;-2.888;2022-12-10T12:21:41;40.05;;;24.60;;
28848;SDS011;15981;43.292;-2.888;2022-12-10T12:24:25;37.17;;;23.38;;
28848;SDS011;15981;43.292;-2.888;2022-12-10T12:26:57;33.00;;;23.05;;
28848;SDS011;15981;43.292;-2.888;2022-12-10T12:29:30;31.75;;;21.40;;
28848;SDS011;15981;43.292;-2.888;2022-12-10T12:31:59;34.35;;;21.48;;
28848;SDS011;15981;43.292;-2.888;2022-12-10T12:34:29;29.98;;;19.67;;
28848;SDS011;15981;43.292;-2.888;2022-12-10T12:37:00;31.20;;;20.25;;
28848;SDS011;15981;43.292;-2.888;2022-12-10T12:39:33;28.35;;;18.67;;
28848;SDS011;15981;43.292;-2.888;2022-12-10T12:42:07;30.55;;;18.70;;
28848;SDS011;15981;43.292;-2.888;2022-12-10T12:49:50;30.52;;;17.33;;
28848;SDS011;15981;43.292;-2.888;2022-12-10T12:54:41;22.95;;;15.07;;
28848;SDS011;15981;43.292;-2.888;2022-12-10T12:57:11;22.67;;;15.00;;
28848;SDS011;15981;43.292;-2.888;2022-12-10T13:02:30;24.73;;;14.55;;
28848;SDS011;15981;43.292;-2.888;2022-12-10T13:05:02;22.10;;;14.18;;
28848;SDS011;15981;43.292;-2.888;2022-12-10T13:07:29;22.65;;;14.05;;
28848;SDS011;15981;43.292;-2.888;2022-12-10T13:10:08;25.08;;;14.15;;
28848;SDS011;15981;43.292;-2.888;2022-12-10T13:18:04;20.83;;;12.25;;
28848;SDS011;15981;43.292;-2.888;2022-12-10T13:20:35;23.80;;;13.55;;
28848;SDS011;15981;43.292;-2.888;2022-12-10T13:23:02;20.05;;;12.85;;
28848;SDS011;15981;43.292;-2.888;2022-12-10T13:25:39;18.08;;;11.25;;
28848;SDS011;15981;43.292;-2.888;2022-12-10T13:28:21;17.00;;;11.05;;
28848;SDS011;15981;43.292;-2.888;2022-12-10T13:36:26;15.85;;;9.48;;
28848;SDS011;15981;43.292;-2.888;2022-12-10T13:38:57;15.48;;;10.00;;
28848;SDS011;15981;43.292;-2.888;2022-12-10T13:41:23;14.55;;;9.77;;
28848;SDS011;15981;43.292;-2.888;2022-12-10T13:49:18;15.13;;;8.77;;
28848;SDS011;15981;43.292;-2.888;2022-12-10T13:59:26;14.07;;;8.57;;
28848;SDS011;15981;43.292;-2.888;2022-12-10T14:02:06;13.05;;;7.53;;
28848;SDS011;15981;43.292;-2.888;2022-12-10T14:07:03;13.10;;;7.25;;
28848;SDS011;15981;43.292;-2.888;2022-12-10T14:09:29;10.55;;;6.93;;
28848;SDS011;15981;43.292;-2.888;2022-12-10T14:11:59;12.20;;;6.82;;
28848;SDS011;15981;43.292;-2.888;2022-12-10T14:14:39;13.15;;;6.60;;
28848;SDS011;15981;43.292;-2.888;2022-12-10T14:17:06;10.40;;;6.53;;
28848;SDS011;15981;43.292;-2.888;2022-12-10T14:19:35;11.88;;;6.22;;
28848;SDS011;15981;43.292;-2.888;2022-12-10T14:22:07;10.15;;;6.00;;
28848;SDS011;15981;43.292;-2.888;2022-12-10T14:24:34;9.18;;;5.90;;
28848;SDS011;15981;43.292;-2.888;2022-12-10T14:27:15;11.77;;;6.50;;
28848;SDS011;15981;43.292;-2.888;2022-12-10T14:29:48;11.20;;;6.30;;
28848;SDS011;15981;43.292;-2.888;2022-12-10T14:32:20;9.25;;;5.63;;
28848;SDS011;15981;43.292;-2.888;2022-12-10T14:34:48;9.77;;;5.63;;
28848;SDS011;15981;43.292;-2.888;2022-12-10T14:37:16;10.32;;;5.47;;
28848;SDS011;15981;43.292;-2.888;2022-12-10T14:39:42;9.52;;;5.45;;
28848;SDS011;15981;43.292;-2.888;2022-12-10T14:42:09;7.13;;;5.20;;
28848;SDS011;15981;43.292;-2.888;2022-12-10T14:44:38;6.53;;;4.47;;
28848;SDS011;15981;43.292;-2.888;2022-12-10T14:47:06;9.27;;;5.35;;
28848;SDS011;15981;43.292;-2.888;2022-12-10T14:49:32;8.25;;;4.57;;
28848;SDS011;15981;43.292;-2.888;2022-12-10T14:51:57;7.80;;;5.07;;
28848;SDS011;15981;43.292;-2.888;2022-12-10T14:54:34;6.88;;;4.80;;
28848;SDS011;15981;43.292;-2.888;2022-12-10T14:57:04;6.10;;;4.25;;
28848;SDS011;15981;43.292;-2.888;2022-12-10T14:59:33;7.88;;;4.78;;
28848;SDS011;15981;43.292;-2.888;2022-12-10T15:02:01;8.45;;;4.30;;
28848;SDS011;15981;43.292;-2.888;2022-12-10T15:04:30;6.63;;;4.22;;
28848;SDS011;15981;43.292;-2.888;2022-12-10T15:06:57;6.57;;;4.40;;
28848;SDS011;15981;43.292;-2.888;2022-12-10T15:09:25;6.38;;;4.20;;
28848;SDS011;15981;43.292;-2.888;2022-12-10T15:11:58;7.13;;;4.38;;
28848;SDS011;15981;43.292;-2.888;2022-12-10T15:14:24;8.00;;;4.47;;
28848;SDS011;15981;43.292;-2.888;2022-12-10T15:16:51;7.85;;;5.18;;
28848;SDS011;15981;43.292;-2.888;2022-12-10T15:19:22;8.13;;;4.73;;
28848;SDS011;15981;43.292;-2.888;2022-12-10T15:21:49;6.93;;;3.95;;
28848;SDS011;15981;43.292;-2.888;2022-12-10T15:24:17;6.30;;;4.00;;
28848;SDS011;15981;43.292;-2.888;2022-12-10T15:26:44;6.37;;;3.57;;
28848;SDS011;15981;43.292;-2.888;2022-12-10T15:31:48;5.35;;;3.72;;
28848;SDS011;15981;43.292;-2.888;2022-12-10T15:34:15;6.43;;;3.58;;
28848;SDS011;15981;43.292;-2.888;2022-12-10T15:41:51;7.80;;;4.28;;
28848;SDS011;15981;43.292;-2.888;2022-12-10T15:49:29;4.35;;;2.85;;
28848;SDS011;15981;43.292;-2.888;2022-12-10T15:51:55;4.88;;;3.50;;
28848;SDS011;15981;43.292;-2.888;2022-12-10T15:54:37;6.15;;;3.40;;
28848;SDS011;15981;43.292;-2.888;2022-12-10T15:57:13;6.00;;;3.78;;
28848;SDS011;15981;43.292;-2.888;2022-12-10T15:59:40;6.00;;;3.40;;
28848;SDS011;15981;43.292;-2.888;2022-12-10T16:02:50;6.03;;;3.28;;
28848;SDS011;15981;43.292;-2.888;2022-12-10T16:04:55;6.97;;;3.47;;
28848;SDS011;15981;43.292;-2.888;2022-12-10T16:07:21;5.70;;;2.92;;
28848;SDS011;15981;43.292;-2.888;2022-12-10T16:09:46;6.10;;;2.90;;
28848;SDS011;15981;43.292;-2.888;2022-12-10T16:12:13;6.00;;;3.00;;
28848;SDS011;15981;43.292;-2.888;2022-12-10T16:14:46;5.38;;;3.08;;
28848;SDS011;15981;43.292;-2.888;2022-12-10T16:17:12;4.13;;;2.60;;
28848;SDS011;15981;43.292;-2.888;2022-12-10T16:19:38;5.03;;;3.38;;
28848;SDS011;15981;43.292;-2.888;2022-12-10T16:22:04;4.03;;;2.70;;
28848;SDS011;15981;43.292;-2.888;2022-12-10T16:24:30;5.80;;;3.13;;